Sayalonga, Spain

11:12 AM CET on February 14, 2016 (GMT +0100)
FRIGILIANA PUEBLO | | Change Station
CLOSE
Current Station
Personal Weather Station
Location: Frigiliana, ANDALUCíA
Elevation: 1056 ft
Nearby Weather Stations

Elev 1056 ft 36.79 °N, 3.90 °W | Updated 2 minutes ago

Scattered Clouds
Scattered Clouds
58.1 °F
Feels Like 58.1 °F
N
13.0
Wind Variable Wind from SE
Gusts 13.0 mph

Today
High -- | Low -- °F
--% Chance of Precip.
Yesterday
High -- | Low -- °F
Precip. -- in
Pressure 29.86 in
Visibility 6.2 miles
Clouds Few 3500 ft
Scattered Clouds 5000 ft
Dew Point 42 °F
Humidity 54%
Rainfall 0.25 in
Snow Depth Not available.
8:06 AM 6:54 PM
Waxing Crescent, 40% visible
METAR LEMG 141000Z 28014G25KT 250V320 9999 FEW035 SCT050 18/08 Q1011 NOSIG
Pressure 29.86 in
Visibility 6.2 miles
Clouds Few 3500 ft
Scattered Clouds 5000 ft
Dew Point 42 °F
Humidity 54%
Rainfall 0.25 in
Snow Depth Not available.
8:06 AM 6:54 PM
Waxing Crescent, 40% visible
METAR LEMG 141000Z 28014G25KT 250V320 9999 FEW035 SCT050 18/08 Q1011 NOSIG

10-Day Weather Forecast

Almanac

Astronomy

Feb. 14, 2016 Rise Set
Actual Time
Civil Twilight
Nautical Twilight
Astronomical Twilight
Moon
Length of Visible Light
Length of Day
Tomorrow will be .
, % of the Moon is Illuminated

Today's Extremes

Country Highs Country Lows

Community

WunderPhotos

Upload Photos

1,892,765 photos uploaded!

WunderBlog® & News

Nearby

Air Quality

  Air Quality AQ Index Pollutant
Not available.

Snow Depth

Station Depth Elevation

Earthquake Activity

City Distance Mag. Time & Date
Minimum magnitude displayed is 2.5.

Coastal Water Temperatures

Place Temperature

Stations

Nearby Weather Stations

Station Location Temp. Windchill Dew Point Humidity Wind Precip. Elev Updated Type